YPTN

Tindal Airport

Airport
ICAO code
YPTN
IATA Code
KTR
Summary
ICAO Region
APAC
ICAO Territory
Location

Tindal, Northern Territory

Serving
Katherine
Elevation
443 ft
Coordinates
14° 31' 16" S , 132° 22' 41" E
Metar
Observation
YPTN 240000Z AUTO 11005KT 060V150 9999 // NCD 30/23 Q1012 RF00.0/000.0
Station
Tindal / Katherine
Date/Time
2023-03-24 00:00:00
Wind direction
110°
Wind speed
05 kts
Lowest cloud amount
no clouds detected
Temperature
30°C
Dew point
23°C
Humidity
66%
QNH
1012 hPa
Weather condition
n/a

Airport map

Aerial View

SKYbrary Partners:

Safety knowledge contributed by: